Bei Facebook empfehlenBei Twitter postenGoogle plusPinterest

Das Wetter im Erzgebirge am 24.12.2015

Wetter und Klima am 24.12.2015 Holzhau im Erzgebirge (630m ü.NN)
Letzte gemessene Temperatur und Uhrzeit der Messung23:45:00 Uhr6.10 °C
Temperatur (Maximum / Höchstwert) und Uhrzeit der Messung14:00:00 Uhr6.50 °C
Temperatur (Minimum / Tiefstwert) und Uhrzeit der Messung03:30:00-0.90 °C
Errechneter Absolutwert der Temperaturschwankungen zwischen Tmin und Tmax des Tages7.40 K
Errechnete Tagesmitteltemperatur3.22500 °C
Gesamt - Niederschlag des Tages (in flüssiger Form)0.00 Liter / m²
Luftdruck (Maximum / Höchstwert) und Zeitpunkt der Messung00:30:00 Uhr1024.80 hPa
Luftdruck (Minimum / Tiefstwert) und Zeitpunkt der Messung23:30:00 Uhr1020.20 hPa
Errechneter Absolutwert der Luftdruckschwankungen des Tages4.60 hPa
Höchste gemessene Windgeschwindigkeit und Uhrzeit der Messung16:30:00 Uhr183.60 km/h
Errechnete Windhäufigkeit in Relation zu den Messwerten des Tages41.66667 %
Niedrigste Windkühle (Windchill) und Zeitpunkt der Messung16:30:00 Uhr-5.50 °C
Taupunkt (Maximum / Höchstwert) und Uhrzeit der Messung14:00:00 Uhr5.90 °C
Taupunkt (Minimum / Tiefstwert) und Uhrzeit der Messung03:30:00-2.00 °C
Anzahl der automatisch eingelesenen Messwerte 96

Detaillierte Wetter- und Klima- Messwerte für den 24.12.2015 in Holzhau im Erzgebirge (630m ü.NN)
ZeitTemperaturLuftdruckRel. LuftfeuchteWindWindrichtungWindchillTaupunktNiederschlag l/m²
23:45:006.10 °C1020.40 hPa95.00 %5.40 °C 
23:30:005.00 °C1020.20 hPa95.00 %4.30 °C 
23:15:004.50 °C1020.20 hPa94.00 %3.60 °C 
23:00:005.10 °C1020.40 hPa94.00 %2.52 km/hOSO5.10 °C4.20 °C 
22:45:005.20 °C1020.50 hPa95.00 %4.50 °C 
22:30:005.20 °C1020.30 hPa95.00 %4.50 °C 
22:15:005.40 °C1020.40 hPa95.00 %4.70 °C 
22:00:005.60 °C1020.40 hPa95.00 %4.90 °C 
21:45:005.90 °C1020.30 hPa95.00 %3.60 km/hOSO5.90 °C5.20 °C 
21:30:006.10 °C1020.40 hPa95.00 %5.40 °C 
21:15:006.10 °C1020.70 hPa95.00 %5.40 °C 
21:00:006.10 °C1020.30 hPa95.00 %5.40 °C 
20:45:006.20 °C1020.50 hPa95.00 %5.50 °C 
20:30:006.20 °C1020.70 hPa95.00 %5.50 °C 
20:15:006.20 °C1020.60 hPa95.00 %5.50 °C 
20:00:006.20 °C1020.40 hPa96.00 %5.60 °C 
19:45:006.20 °C1020.60 hPa96.00 %7.56 km/hSO4.70 °C5.60 °C 
19:30:005.90 °C1020.50 hPa96.00 %3.96 km/hOSO5.90 °C5.30 °C 
19:15:005.90 °C1021.00 hPa96.00 %7.92 km/hSO4.20 °C5.30 °C 
19:00:005.80 °C1021.10 hPa96.00 %5.20 °C 
18:45:005.60 °C1021.10 hPa96.00 %5.00 °C 
18:30:005.30 °C1021.10 hPa96.00 %4.70 °C 
18:15:005.10 °C1021.10 hPa96.00 %2.16 km/hSW5.10 °C4.50 °C 
18:00:005.10 °C1021.20 hPa96.00 %4.50 °C 
17:45:004.90 °C1021.10 hPa96.00 %4.30 °C 
17:30:004.90 °C1021.00 hPa96.00 %1.80 km/hOSO4.90 °C4.30 °C 
17:15:004.80 °C1021.20 hPa96.00 %4.20 °C 
17:00:004.80 °C1021.20 hPa96.00 %4.68 km/hSSW4.80 °C4.20 °C 
16:45:004.80 °C1021.00 hPa96.00 %2.16 km/hWSW4.80 °C4.20 °C 
16:30:004.90 °C1021.00 hPa96.00 %183.60 km/hS-5.50 °C4.30 °C 
16:15:004.90 °C1021.10 hPa96.00 %5.04 km/hOSO4.00 °C4.30 °C 
16:00:004.90 °C1021.10 hPa96.00 %7.20 km/hSSO3.20 °C4.30 °C 
15:45:005.10 °C1020.90 hPa96.00 %4.50 °C 
15:30:005.10 °C1020.80 hPa96.00 %9.36 km/hSW2.90 °C4.50 °C 
15:15:005.30 °C1020.80 hPa95.00 %2.88 km/hSSO5.30 °C4.60 °C 
15:00:005.80 °C1021.10 hPa96.00 %3.96 km/hSSW5.80 °C5.20 °C 
14:45:005.90 °C1020.80 hPa96.00 %5.04 km/hS5.10 °C5.30 °C 
14:30:006.20 °C1021.00 hPa96.00 %2.52 km/hSW6.20 °C5.60 °C 
14:15:006.40 °C1020.90 hPa96.00 %5.80 °C 
14:00:006.50 °C1020.80 hPa96.00 %6.12 km/hO5.40 °C5.90 °C 
13:45:006.30 °C1020.90 hPa96.00 %9.00 km/hSSO4.40 °C5.70 °C 
13:30:006.40 °C1021.10 hPa96.00 %5.80 °C 
13:15:006.50 °C1021.30 hPa96.00 %2.88 km/hSSO6.50 °C5.90 °C 
13:00:006.40 °C1021.40 hPa96.00 %6.84 km/hSW5.10 °C5.80 °C 
12:45:006.10 °C1021.40 hPa96.00 %5.50 °C 
12:30:005.80 °C1021.50 hPa96.00 %5.20 °C 
12:15:005.50 °C1022.00 hPa96.00 %4.90 °C 
12:00:005.30 °C1022.10 hPa96.00 %3.96 km/hSW5.30 °C4.70 °C 
11:45:004.90 °C1022.30 hPa96.00 %4.30 °C 
11:30:004.60 °C1022.40 hPa96.00 %4.00 °C 
11:15:004.60 °C1022.40 hPa96.00 %4.00 °C 
11:00:004.10 °C1022.70 hPa95.00 %3.40 °C 
10:45:004.00 °C1022.90 hPa95.00 %4.32 km/hSSW4.00 °C3.30 °C 
10:30:003.90 °C1022.90 hPa95.00 %2.52 km/hSSO3.90 °C3.20 °C 
10:15:003.50 °C1023.00 hPa95.00 %2.80 °C 
10:00:003.10 °C1023.10 hPa95.00 %6.12 km/hS1.50 °C2.40 °C 
09:45:002.90 °C1023.00 hPa95.00 %2.52 km/hSSO2.90 °C2.20 °C 
09:30:002.60 °C1023.00 hPa95.00 %1.90 °C 
09:15:002.30 °C1022.90 hPa95.00 %1.44 km/hS2.30 °C1.60 °C 
09:00:002.10 °C1022.90 hPa95.00 %3.96 km/hSSW2.10 °C1.40 °C 
08:45:000.90 °C1022.90 hPa95.00 %7.56 km/hSSW-1.50 °C0.20 °C 
08:30:00-0.40 °C1023.00 hPa94.00 %3.96 km/hSSO-0.40 °C-1.30 °C 
08:15:00-0.40 °C1022.90 hPa94.00 %-1.30 °C 
08:00:00-0.10 °C1022.90 hPa94.00 %-1.00 °C 
07:45:000.20 °C1023.00 hPa94.00 %-0.60 °C 
07:30:000.60 °C1023.10 hPa94.00 %-0.30 °C 
07:15:000.40 °C1023.10 hPa94.00 %-0.50 °C 
07:00:000.80 °C1023.00 hPa95.00 %0.10 °C 
06:45:001.10 °C1023.00 hPa95.00 %0.40 °C 
06:30:001.30 °C1022.90 hPa95.00 %3.24 km/hSO1.30 °C0.60 °C 
06:15:001.30 °C1022.90 hPa95.00 %0.60 °C 
06:00:001.00 °C1022.90 hPa95.00 %0.30 °C 
05:45:000.70 °C1023.20 hPa94.00 %-0.20 °C 
05:30:000.10 °C1023.20 hPa94.00 %3.60 km/hNO0.10 °C-0.70 °C 
05:15:00-0.50 °C1023.30 hPa94.00 %-1.40 °C 
05:00:00-0.80 °C1023.30 hPa94.00 %-1.70 °C 
04:45:00-0.70 °C1023.40 hPa94.00 %-1.60 °C 
04:30:00-0.70 °C1023.70 hPa94.00 %6.48 km/hO-3.00 °C-1.60 °C 
04:15:00-0.70 °C1023.80 hPa94.00 %-1.60 °C 
04:00:00-0.50 °C1024.10 hPa94.00 %1.80 km/hSO-0.50 °C-1.40 °C 
03:45:00-0.60 °C1024.00 hPa94.00 %3.60 km/hOSO-0.60 °C-1.50 °C 
03:30:00-0.90 °C1024.00 hPa93.00 %5.76 km/hOSO-3.00 °C-2.00 °C 
03:15:00-0.80 °C1024.20 hPa93.00 %5.40 km/hOSO-2.70 °C-1.90 °C 
03:00:00-0.70 °C1024.30 hPa93.00 %-1.80 °C 
02:45:00-0.70 °C1024.30 hPa93.00 %1.80 km/hOSO-0.70 °C-1.80 °C 
02:30:00-0.90 °C1024.30 hPa93.00 %1.80 km/hOSO-0.90 °C-2.00 °C 
02:15:00-0.60 °C1024.30 hPa94.00 %-1.50 °C 
02:00:00-0.40 °C1024.30 hPa94.00 %-1.30 °C 
01:45:00-0.70 °C1024.50 hPa93.00 %3.24 km/hOSO-0.70 °C-1.80 °C 
01:30:00-0.70 °C1024.50 hPa93.00 %-1.80 °C 
01:15:00-0.50 °C1024.60 hPa93.00 %-1.60 °C 
01:00:00-0.40 °C1024.40 hPa93.00 %-1.50 °C 
00:45:00-0.10 °C1024.60 hPa93.00 %-1.20 °C 
00:30:000.40 °C1024.80 hPa93.00 %-0.60 °C 
00:15:000.70 °C1024.80 hPa93.00 %-0.30 °C 
00:00:000.80 °C1024.80 hPa93.00 %-0.20 °C 

Permanenter Link zu dieser Seite: Wetter im Erzgebirge am 24.12.2015
Performance-Info: Die Erstellung der Seite / Statistik(en) / Tabelle(n) erforderte 5 Datenbankserver-Abfrage(n) und dauerte 98 Millisekunden. (Dieser Messwert ist von der Gesamt-Auslastung des Servers abhängig.)
Erzgebirge - Wetter | Erzgebirge - Wetter (Mobilgeräte) | Komplette Klimadatenbank